Time;durP1;ratioP1;P1;durP2;ratioP2;P2;SDS_P1;SDS_P2;PMS_P1;PMS_P2;Temp;Humidity;BMP_temperature;BMP_pressure;BME280_temperature;BME280_humidity;BME280_pressure;Samples;Min_cycle;Max_cycle;Signal;HPM_P1;HPM_P2
2023/09/19 00:02:04;;;;;;;0.30;0.30;;;13.60;99.90;;;;;;5108898;28;20051;-75
2023/09/19 00:04:32;;;;;;;0.20;0.20;;;13.60;99.90;;;;;;5105447;28;20063;-75
2023/09/19 00:06:58;;;;;;;0.50;0.50;;;13.50;99.90;;;;;;5107754;28;20043;-75
2023/09/19 00:09:27;;;;;;;0.30;0.30;;;13.50;99.90;;;;;;5110980;28;20051;-75
2023/09/19 00:11:53;;;;;;;0.20;0.20;;;13.50;99.90;;;;;;5107765;28;20067;-75
2023/09/19 00:14:19;;;;;;;0.22;0.22;;;13.40;99.90;;;;;;5108479;27;20085;-74
2023/09/19 00:16:46;;;;;;;0.25;0.25;;;13.40;99.90;;;;;;5104019;28;20052;-74
2023/09/19 00:19:13;;;;;;;0.40;0.40;;;13.40;99.90;;;;;;5110493;28;20142;-75
2023/09/19 00:21:40;;;;;;;0.30;0.30;;;13.40;99.90;;;;;;5104762;28;20108;-75
2023/09/19 00:24:07;;;;;;;0.30;0.30;;;13.30;99.90;;;;;;5108849;28;20172;-75
2023/09/19 00:26:34;;;;;;;;;;;13.40;99.90;;;;;;5107446;28;20457;-76
2023/09/19 00:29:05;;;;;;;0.30;0.30;;;13.40;99.90;;;;;;5103435;28;19920;-75
2023/09/19 00:31:31;;;;;;;0.30;0.30;;;13.50;99.90;;;;;;5108325;28;20148;-75
2023/09/19 00:34:02;;;;;;;1.35;1.30;;;13.50;99.90;;;;;;5110287;28;20508;-75
2023/09/19 00:36:29;;;;;;;0.20;0.20;;;13.60;99.90;;;;;;5107607;28;20039;-75
2023/09/19 00:38:54;;;;;;;0.20;0.20;;;13.60;99.90;;;;;;5106433;28;20052;-74
2023/09/19 00:41:24;;;;;;;0.30;0.30;;;13.70;99.90;;;;;;5104688;28;20488;-75
2023/09/19 00:43:50;;;;;;;0.50;0.50;;;13.60;99.90;;;;;;5107992;28;20043;-74
2023/09/19 00:46:19;;;;;;;0.30;0.30;;;13.60;99.90;;;;;;5105063;28;20549;-75
2023/09/19 00:48:46;;;;;;;0.25;0.25;;;13.60;99.90;;;;;;5108647;28;20103;-75
2023/09/19 00:51:13;;;;;;;0.32;0.32;;;13.50;99.90;;;;;;5105076;28;20081;-75
2023/09/19 00:53:46;;;;;;;0.25;0.25;;;13.40;99.90;;;;;;5107241;28;20136;-74
2023/09/19 00:56:11;;;;;;;3.33;1.23;;;13.30;99.90;;;;;;5103585;28;20043;-75
2023/09/19 00:58:38;;;;;;;0.75;0.75;;;13.30;99.90;;;;;;5107488;28;20500;-75
2023/09/19 01:01:06;;;;;;;0.47;0.47;;;13.30;99.90;;;;;;5107967;28;20044;-74
2023/09/19 01:03:33;;;;;;;1.60;1.60;;;13.20;99.90;;;;;;5108924;28;20066;-75
2023/09/19 01:06:02;;;;;;;0.30;0.30;;;13.30;99.90;;;;;;5103736;28;20497;-75
2023/09/19 01:08:29;;;;;;;0.65;0.50;;;13.30;99.90;;;;;;5100509;28;20050;-75
2023/09/19 01:11:21;;;;;;;0.30;0.30;;;13.30;99.90;;;;;;5109802;28;20043;-74
2023/09/19 01:13:57;;;;;;;0.22;0.22;;;13.20;99.90;;;;;;5104057;28;20047;-74
2023/09/19 01:16:39;;;;;;;0.47;0.47;;;13.10;99.90;;;;;;5109361;28;20043;-75
2023/09/19 01:19:43;;;;;;;0.32;0.32;;;13.10;99.90;;;;;;5104267;28;20633;-75
2023/09/19 01:22:18;;;;;;;0.30;0.30;;;13.00;99.90;;;;;;5108020;28;20385;-75
2023/09/19 01:25:16;;;;;;;0.38;0.38;;;13.00;99.90;;;;;;5103888;28;20071;-75
2023/09/19 01:27:54;;;;;;;0.47;0.47;;;13.00;99.90;;;;;;5112936;27;20125;-75
2023/09/19 01:30:29;;;;;;;0.40;0.40;;;12.90;99.90;;;;;;5104755;28;20337;-75
2023/09/19 01:32:55;;;;;;;0.20;0.20;;;12.90;99.90;;;;;;5106403;28;20123;-75
2023/09/19 01:35:21;;;;;;;0.40;0.40;;;12.90;99.90;;;;;;5109775;27;20719;-75
2023/09/19 01:37:46;;;;;;;0.20;0.20;;;12.90;99.90;;;;;;5105492;28;20047;-75
2023/09/19 01:40:18;;;;;;;0.80;0.80;;;12.90;99.90;;;;;;5103327;28;20554;-76
2023/09/19 01:42:51;;;;;;;0.30;0.30;;;12.90;99.90;;;;;;5103611;28;20546;-75
2023/09/19 01:45:23;;;;;;;0.28;0.28;;;12.90;99.90;;;;;;5107123;28;20554;-75
2023/09/19 01:47:55;;;;;;;0.50;0.50;;;12.90;99.90;;;;;;5097888;28;20047;-75
2023/09/19 01:51:00;;;;;;;0.35;0.30;;;12.80;99.90;;;;;;5102827;28;20123;-75
2023/09/19 01:53:45;;;;;;;0.40;0.40;;;12.80;99.90;;;;;;5101780;28;20048;-75
2023/09/19 01:56:21;;;;;;;0.30;0.30;;;12.70;99.90;;;;;;5103885;28;20051;-76
2023/09/19 01:58:59;;;;;;;0.35;0.35;;;12.70;99.90;;;;;;5101947;28;20058;-75
2023/09/19 02:01:26;;;;;;;0.30;0.30;;;12.70;99.90;;;;;;5104253;28;20473;-75
2023/09/19 02:03:53;;;;;;;0.52;0.52;;;12.70;99.90;;;;;;5106506;28;20155;-75
2023/09/19 02:06:19;;;;;;;0.20;0.20;;;12.60;99.90;;;;;;5103905;28;20048;-75
2023/09/19 02:08:48;;;;;;;0.52;0.52;;;12.50;99.90;;;;;;5107262;28;20601;-75
2023/09/19 02:11:14;;;;;;;0.30;0.30;;;12.40;99.90;;;;;;5106429;28;20560;-75
2023/09/19 02:13:40;;;;;;;0.50;0.50;;;12.40;99.90;;;;;;5101877;28;20040;-75
2023/09/19 02:16:07;;;;;;;0.38;0.38;;;12.40;99.90;;;;;;5102388;28;20047;-75
2023/09/19 02:18:34;;;;;;;;;;;12.40;99.90;;;;;;5097805;28;20051;-75
2023/09/19 02:21:01;;;;;;;0.88;0.88;;;12.30;99.90;;;;;;5096460;28;19926;-75
2023/09/19 02:23:27;;;;;;;0.60;0.60;;;12.30;99.90;;;;;;5101296;28;20546;-75
2023/09/19 02:25:53;;;;;;;;;;;12.20;99.90;;;;;;5101442;28;20058;-76
2023/09/19 02:28:19;;;;;;;0.30;0.30;;;12.20;99.90;;;;;;5098458;28;19923;-75
2023/09/19 02:30:48;;;;;;;0.30;0.30;;;12.10;99.90;;;;;;5099451;28;20052;-74
2023/09/19 02:33:15;;;;;;;0.40;0.40;;;12.10;99.90;;;;;;5098045;28;20071;-74
2023/09/19 02:35:40;;;;;;;0.40;0.40;;;12.10;99.90;;;;;;5103753;28;20422;-74
2023/09/19 02:38:11;;;;;;;0.30;0.30;;;12.10;99.90;;;;;;5096978;28;20134;-75
2023/09/19 02:40:37;;;;;;;0.32;0.32;;;12.10;99.90;;;;;;5096776;28;20397;-75
2023/09/19 02:43:03;;;;;;;0.30;0.30;;;12.10;99.90;;;;;;5100286;28;20043;-75
2023/09/19 02:45:30;;;;;;;0.40;0.40;;;12.00;99.90;;;;;;5096638;28;20041;-75
2023/09/19 02:47:55;;;;;;;0.40;0.40;;;12.00;99.90;;;;;;5094389;28;20031;-74
2023/09/19 02:50:21;;;;;;;0.40;0.40;;;12.10;99.90;;;;;;5098545;28;20046;-75
2023/09/19 02:52:48;;;;;;;0.30;0.30;;;12.10;99.90;;;;;;5098479;28;20047;-75
2023/09/19 02:55:17;;;;;;;0.40;0.40;;;12.10;99.90;;;;;;5097383;28;20070;-74
2023/09/19 02:57:50;;;;;;;1.95;1.65;;;12.00;99.90;;;;;;5099338;28;20401;-74
2023/09/19 03:00:20;;;;;;;0.20;0.20;;;12.00;99.90;;;;;;5097770;28;20135;-74
2023/09/19 03:02:47;;;;;;;0.40;0.40;;;12.10;99.90;;;;;;5093482;28;20042;-75
2023/09/19 03:05:13;;;;;;;0.60;0.57;;;12.10;99.90;;;;;;5099392;28;20076;-74
2023/09/19 03:07:39;;;;;;;0.52;0.52;;;12.20;99.90;;;;;;5100892;28;20082;-75
2023/09/19 03:10:08;;;;;;;0.30;0.30;;;12.20;99.90;;;;;;5105803;28;20151;-75
2023/09/19 03:12:34;;;;;;;0.32;0.32;;;12.20;99.90;;;;;;5104866;28;20075;-74
2023/09/19 03:15:01;;;;;;;0.40;0.40;;;12.30;99.90;;;;;;5107172;27;20658;-77
2023/09/19 03:17:27;;;;;;;;;;;12.20;99.90;;;;;;5109021;28;20039;-76
2023/09/19 03:19:53;;;;;;;0.30;0.30;;;12.20;99.90;;;;;;5100908;28;20036;-76
2023/09/19 03:22:20;;;;;;;0.35;0.35;;;12.20;99.90;;;;;;5108156;28;20039;-76
2023/09/19 03:24:46;;;;;;;0.32;0.32;;;12.20;99.90;;;;;;5102404;28;20071;-76
2023/09/19 03:27:15;;;;;;;0.38;0.38;;;12.20;99.90;;;;;;5105321;28;20135;-76
2023/09/19 03:29:42;;;;;;;0.30;0.30;;;12.20;99.90;;;;;;5096518;28;20051;-75
2023/09/19 03:32:10;;;;;;;0.30;0.30;;;12.20;99.90;;;;;;5082653;28;20108;-76
2023/09/19 03:34:41;;;;;;;2.08;1.55;;;12.20;99.90;;;;;;5106491;28;20052;-75
2023/09/19 03:37:08;;;;;;;4.20;0.47;;;12.20;99.90;;;;;;5104524;28;20052;-76
2023/09/19 03:39:34;;;;;;;0.82;0.82;;;12.30;99.90;;;;;;5097469;28;20051;-75
2023/09/19 03:42:00;;;;;;;0.47;0.47;;;12.30;99.90;;;;;;5104115;28;20485;-76
2023/09/19 03:44:26;;;;;;;0.30;0.30;;;12.30;99.90;;;;;;5103786;28;20047;-76
2023/09/19 03:46:51;;;;;;;0.30;0.30;;;12.30;99.90;;;;;;5101655;28;20055;-76
2023/09/19 03:49:17;;;;;;;0.35;0.35;;;12.20;99.90;;;;;;5078190;28;20040;-76
2023/09/19 03:51:43;;;;;;;0.38;0.38;;;12.20;99.90;;;;;;5104030;28;20048;-75
2023/09/19 03:54:08;;;;;;;0.30;0.30;;;12.20;99.90;;;;;;5103008;28;20036;-75
2023/09/19 03:56:34;;;;;;;0.20;0.20;;;12.20;99.90;;;;;;5099796;28;21086;-76
2023/09/19 03:59:00;;;;;;;0.30;0.30;;;12.10;99.90;;;;;;5101917;28;20043;-76
2023/09/19 04:01:27;;;;;;;0.40;0.40;;;12.10;99.90;;;;;;5102200;28;20506;-76
2023/09/19 04:03:53;;;;;;;0.38;0.38;;;12.10;99.90;;;;;;5099161;28;20082;-75
2023/09/19 04:06:19;;;;;;;5.82;1.58;;;12.10;99.90;;;;;;5103865;28;20159;-75
2023/09/19 04:08:47;;;;;;;0.30;0.30;;;12.10;99.90;;;;;;5098552;28;20044;-76
2023/09/19 04:11:12;;;;;;;0.28;0.28;;;12.30;99.90;;;;;;5104542;28;20164;-75
2023/09/19 04:13:38;;;;;;;0.30;0.30;;;12.20;99.90;;;;;;5099972;27;20082;-75
2023/09/19 04:16:04;;;;;;;0.30;0.30;;;12.30;99.90;;;;;;5098982;28;20043;-75
2023/09/19 04:18:37;;;;;;;1.17;1.17;;;12.30;99.90;;;;;;5103131;28;20083;-76
2023/09/19 04:21:04;;;;;;;0.20;0.20;;;12.40;99.90;;;;;;5098013;28;20485;-76
2023/09/19 04:23:30;;;;;;;0.40;0.40;;;12.40;99.90;;;;;;5100159;28;20059;-76
2023/09/19 04:25:57;;;;;;;0.30;0.30;;;12.40;99.90;;;;;;5103114;28;20052;-76
2023/09/19 04:28:24;;;;;;;1.02;1.02;;;12.50;99.90;;;;;;5100374;28;20052;-75
2023/09/19 04:30:50;;;;;;;0.47;0.47;;;12.40;99.90;;;;;;5096845;28;20071;-76
2023/09/19 04:33:16;;;;;;;1.17;1.13;;;12.40;99.90;;;;;;5104880;28;20460;-75
2023/09/19 04:35:44;;;;;;;0.40;0.40;;;12.40;99.90;;;;;;5094923;28;20051;-76
2023/09/19 04:38:11;;;;;;;0.30;0.30;;;12.50;99.90;;;;;;5099063;28;20075;-76
2023/09/19 04:40:39;;;;;;;0.73;0.73;;;12.50;99.90;;;;;;5098849;28;20039;-75
2023/09/19 04:43:05;;;;;;;0.45;0.45;;;12.50;99.90;;;;;;5102994;28;20052;-76
2023/09/19 04:45:31;;;;;;;;;;;12.50;99.90;;;;;;5101001;28;20048;-75
2023/09/19 04:47:57;;;;;;;0.38;0.38;;;12.50;99.90;;;;;;5098266;28;20028;-76
2023/09/19 04:50:24;;;;;;;0.30;0.30;;;12.50;99.90;;;;;;5102490;27;20039;-76
2023/09/19 04:52:50;;;;;;;0.40;0.40;;;12.50;99.90;;;;;;5099843;28;20055;-75
2023/09/19 04:55:20;;;;;;;0.30;0.30;;;12.50;99.90;;;;;;5099866;28;20103;-76
2023/09/19 04:57:47;;;;;;;0.40;0.40;;;12.50;99.90;;;;;;5097802;28;20131;-76
2023/09/19 05:00:23;;;;;;;0.30;0.30;;;12.50;99.90;;;;;;5099070;28;20036;-76
2023/09/19 05:02:53;;;;;;;0.20;0.20;;;12.50;99.90;;;;;;5102005;28;20040;-74
2023/09/19 05:05:19;;;;;;;0.60;0.60;;;12.50;99.90;;;;;;5097182;28;20086;-74
2023/09/19 05:07:46;;;;;;;0.52;0.52;;;12.40;99.90;;;;;;5101140;28;20072;-74
2023/09/19 05:10:16;;;;;;;0.30;0.30;;;12.50;99.90;;;;;;5094178;28;20116;-75
2023/09/19 05:12:41;;;;;;;0.28;0.28;;;12.50;99.90;;;;;;5101282;28;20062;-74
2023/09/19 05:15:08;;;;;;;0.38;0.38;;;12.50;99.90;;;;;;5102036;28;20039;-75
2023/09/19 05:17:34;;;;;;;0.40;0.40;;;12.50;99.90;;;;;;5095318;28;20048;-75
2023/09/19 05:20:17;;;;;;;0.50;0.50;;;12.50;99.90;;;;;;5092658;28;20052;-75
2023/09/19 05:22:43;;;;;;;0.40;0.40;;;12.60;99.90;;;;;;5100988;27;20554;-75
2023/09/19 05:25:18;;;;;;;;;;;12.60;99.90;;;;;;5098408;27;20669;-75
2023/09/19 05:27:44;;;;;;;0.28;0.28;;;12.60;99.90;;;;;;5102934;28;19924;-75
2023/09/19 05:30:10;;;;;;;0.40;0.40;;;12.70;99.90;;;;;;5104283;28;20043;-75
2023/09/19 05:32:36;;;;;;;0.30;0.30;;;12.60;99.90;;;;;;5100504;28;20119;-75
2023/09/19 05:35:03;;;;;;;0.30;0.30;;;12.70;99.90;;;;;;5099445;28;20051;-75
2023/09/19 05:37:29;;;;;;;0.30;0.30;;;12.70;99.90;;;;;;5076241;28;20056;-75
2023/09/19 05:39:55;;;;;;;0.30;0.30;;;12.70;99.90;;;;;;5097989;28;20118;-75
2023/09/19 05:42:21;;;;;;;0.80;0.80;;;12.70;99.90;;;;;;5100822;28;20126;-75
2023/09/19 05:44:46;;;;;;;0.43;0.43;;;12.70;99.90;;;;;;5100480;28;20047;-75
2023/09/19 05:47:12;;;;;;;0.30;0.30;;;12.80;99.90;;;;;;5098487;28;20043;-75
2023/09/19 05:49:38;;;;;;;;;;;12.80;99.90;;;;;;5096556;28;20491;-75
2023/09/19 05:52:06;;;;;;;0.32;0.32;;;12.80;99.90;;;;;;5100360;28;19931;-76
2023/09/19 05:54:34;;;;;;;0.20;0.20;;;12.90;99.90;;;;;;5092239;28;20048;-75
2023/09/19 05:57:01;;;;;;;0.20;0.20;;;12.90;99.90;;;;;;5100454;28;20130;-75
2023/09/19 05:59:27;;;;;;;0.30;0.30;;;13.00;99.90;;;;;;5098029;28;20035;-75
2023/09/19 06:01:53;;;;;;;0.20;0.20;;;13.00;99.90;;;;;;5092984;28;20619;-76
2023/09/19 06:04:19;;;;;;;0.40;0.40;;;13.00;99.90;;;;;;5099011;28;20055;-76
2023/09/19 06:06:45;;;;;;;0.30;0.30;;;13.10;99.90;;;;;;5102531;28;20035;-75
2023/09/19 06:09:11;;;;;;;0.25;0.25;;;13.10;99.90;;;;;;5100904;28;20048;-76
2023/09/19 06:11:37;;;;;;;0.30;0.30;;;13.10;99.90;;;;;;5094197;28;20047;-76
2023/09/19 06:14:03;;;;;;;0.30;0.30;;;13.20;99.90;;;;;;5099875;28;20204;-76
2023/09/19 06:16:31;;;;;;;0.40;0.40;;;13.30;99.90;;;;;;5096282;28;20064;-76
2023/09/19 06:18:59;;;;;;;0.30;0.30;;;13.30;99.90;;;;;;5098008;28;20048;-76
2023/09/19 06:21:26;;;;;;;0.20;0.20;;;13.30;99.90;;;;;;5099900;28;20055;-76
2023/09/19 06:23:57;;;;;;;0.30;0.30;;;13.30;99.90;;;;;;5099250;28;20127;-75
2023/09/19 06:26:23;;;;;;;0.22;0.22;;;13.30;99.90;;;;;;5094068;28;20119;-75
2023/09/19 06:28:49;;;;;;;0.30;0.30;;;13.40;99.90;;;;;;5102576;28;20139;-76
2023/09/19 06:31:15;;;;;;;2.00;1.40;;;13.40;99.90;;;;;;5102462;28;20779;-76
2023/09/19 06:33:40;;;;;;;0.30;0.30;;;13.40;99.90;;;;;;5096280;28;20778;-76
2023/09/19 06:36:07;;;;;;;0.28;0.28;;;13.40;99.90;;;;;;5099468;28;20047;-75
2023/09/19 06:38:35;;;;;;;0.32;0.32;;;13.50;99.90;;;;;;5096991;28;20807;-76
2023/09/19 06:41:04;;;;;;;0.30;0.30;;;13.60;99.90;;;;;;5098427;28;20151;-75
2023/09/19 06:43:33;;;;;;;0.35;0.35;;;13.70;99.90;;;;;;5100315;28;20055;-75
2023/09/19 06:46:00;;;;;;;0.35;0.35;;;13.70;99.90;;;;;;5089807;28;20048;-76
2023/09/19 06:48:26;;;;;;;0.30;0.30;;;13.80;99.90;;;;;;5095892;28;20047;-76
2023/09/19 06:51:02;;;;;;;0.40;0.40;;;13.80;99.90;;;;;;5108079;27;20047;-75
2023/09/19 06:53:31;;;;;;;0.88;0.70;;;14.00;99.90;;;;;;5107425;27;20048;-76
2023/09/19 06:55:57;;;;;;;0.22;0.22;;;14.00;99.90;;;;;;5101618;28;20048;-76
2023/09/19 06:58:23;;;;;;;;;;;14.10;99.90;;;;;;5098624;28;20106;-76
2023/09/19 07:00:50;;;;;;;0.30;0.30;;;14.10;99.90;;;;;;5105903;28;19966;-76
2023/09/19 07:03:20;;;;;;;0.47;0.47;;;14.20;99.90;;;;;;5100849;28;20051;-76
2023/09/19 07:05:48;;;;;;;0.20;0.20;;;14.20;99.90;;;;;;5104322;28;20055;-76
2023/09/19 07:08:14;;;;;;;0.32;0.32;;;14.30;99.90;;;;;;5095991;28;20734;-75
2023/09/19 07:10:40;;;;;;;2.55;0.40;;;14.40;99.90;;;;;;5106157;27;20050;-76
2023/09/19 07:13:10;;;;;;;0.50;0.50;;;14.40;99.90;;;;;;5105910;28;20043;-76
2023/09/19 07:15:39;;;;;;;0.63;0.63;;;14.50;99.90;;;;;;5102231;28;20040;-76
2023/09/19 07:18:06;;;;;;;0.30;0.30;;;14.50;99.90;;;;;;5104616;27;20347;-76
2023/09/19 07:20:32;;;;;;;0.40;0.40;;;14.60;99.90;;;;;;5104195;28;20166;-76
2023/09/19 07:23:01;;;;;;;0.30;0.30;;;14.60;99.90;;;;;;5103958;28;20103;-76
2023/09/19 07:25:30;;;;;;;1.60;0.30;;;14.70;99.90;;;;;;5099238;28;20104;-76
2023/09/19 07:27:59;;;;;;;0.30;0.30;;;14.70;99.90;;;;;;5104653;27;20461;-76
2023/09/19 07:30:26;;;;;;;0.30;0.30;;;14.70;99.90;;;;;;5107085;28;20101;-75
2023/09/19 07:32:52;;;;;;;0.30;0.30;;;14.70;99.90;;;;;;5108367;28;20043;-76
2023/09/19 07:35:19;;;;;;;0.30;0.30;;;14.80;99.90;;;;;;5104943;28;20493;-76
2023/09/19 07:37:49;;;;;;;0.32;0.32;;;14.80;99.90;;;;;;5103040;28;20054;-76
2023/09/19 07:40:15;;;;;;;0.30;0.30;;;14.80;99.90;;;;;;5101713;28;20679;-76
2023/09/19 07:42:41;;;;;;;0.52;0.52;;;14.80;99.90;;;;;;5117692;27;20434;-76
2023/09/19 07:45:08;;;;;;;0.30;0.30;;;14.80;99.90;;;;;;5112396;27;20058;-74
2023/09/19 07:47:36;;;;;;;0.20;0.20;;;15.00;99.90;;;;;;5103002;28;20430;-76
2023/09/19 07:50:02;;;;;;;0.20;0.20;;;15.00;99.90;;;;;;5085754;28;20070;-76
2023/09/19 07:52:29;;;;;;;0.30;0.30;;;15.10;99.90;;;;;;5103086;28;20116;-76
2023/09/19 07:54:57;;;;;;;0.20;0.20;;;15.30;99.90;;;;;;5102895;28;20079;-76
2023/09/19 07:57:23;;;;;;;0.40;0.40;;;15.20;99.90;;;;;;5100193;28;20591;-76
2023/09/19 07:59:49;;;;;;;1.27;0.52;;;15.20;99.90;;;;;;5102723;28;20126;-76
2023/09/19 08:02:18;;;;;;;;;;;15.20;99.90;;;;;;5101954;28;20050;-76
2023/09/19 08:04:46;;;;;;;0.52;0.52;;;15.20;99.90;;;;;;5099815;28;19931;-76
2023/09/19 08:07:13;;;;;;;0.35;0.35;;;15.20;99.90;;;;;;5110225;28;20055;-75
2023/09/19 08:09:39;;;;;;;0.28;0.28;;;15.10;99.90;;;;;;5107316;28;20814;-75
2023/09/19 08:12:08;;;;;;;0.30;0.30;;;15.10;99.90;;;;;;5101147;27;20047;-75
2023/09/19 08:14:33;;;;;;;0.30;0.30;;;15.20;99.90;;;;;;5102847;28;20093;-74
2023/09/19 08:17:00;;;;;;;0.30;0.30;;;15.30;99.90;;;;;;5102337;28;20047;-75
2023/09/19 08:19:31;;;;;;;0.50;0.50;;;15.40;99.90;;;;;;5098550;28;20108;-75
2023/09/19 08:21:58;;;;;;;0.30;0.30;;;15.70;99.90;;;;;;5095800;28;20482;-75
2023/09/19 08:24:30;;;;;;;0.40;0.40;;;15.90;99.90;;;;;;5102568;28;20059;-74
2023/09/19 08:26:57;;;;;;;0.70;0.68;;;16.10;99.90;;;;;;5104072;28;20125;-75
2023/09/19 08:29:29;;;;;;;0.30;0.30;;;16.20;99.90;;;;;;5105386;28;20068;-74
2023/09/19 08:31:56;;;;;;;0.40;0.40;;;16.20;99.90;;;;;;5105462;28;20055;-75
2023/09/19 08:34:26;;;;;;;0.30;0.30;;;16.20;99.90;;;;;;5104071;28;20126;-75
2023/09/19 08:36:56;;;;;;;0.55;0.55;;;16.20;99.90;;;;;;5101974;28;20043;-75
2023/09/19 08:39:23;;;;;;;0.30;0.30;;;16.20;99.90;;;;;;5104366;28;20080;-75
2023/09/19 08:41:49;;;;;;;0.65;0.40;;;16.30;99.90;;;;;;5103393;28;20125;-75
2023/09/19 08:44:15;;;;;;;0.50;0.50;;;16.40;99.90;;;;;;5102748;28;20122;-74
2023/09/19 08:46:43;;;;;;;0.20;0.20;;;16.40;99.90;;;;;;5098770;28;20429;-75
2023/09/19 08:49:25;;;;;;;0.30;0.30;;;16.50;99.90;;;;;;5099245;28;20047;-76
2023/09/19 08:52:05;;;;;;;1.17;1.08;;;16.50;99.90;;;;;;5104558;28;20393;-75
2023/09/19 08:54:38;;;;;;;0.60;0.60;;;16.50;99.90;;;;;;5100823;28;20044;-74
2023/09/19 08:57:11;;;;;;;0.47;0.47;;;16.50;99.90;;;;;;5104189;28;20043;-75
2023/09/19 08:59:41;;;;;;;0.20;0.20;;;16.50;99.90;;;;;;5102836;28;20477;-74
2023/09/19 09:02:12;;;;;;;0.38;0.38;;;16.60;99.90;;;;;;5098795;28;20442;-75
2023/09/19 09:04:42;;;;;;;0.90;0.90;;;16.70;99.90;;;;;;5098331;28;20135;-75
2023/09/19 09:07:12;;;;;;;0.30;0.30;;;16.60;99.90;;;;;;5105831;28;20055;-74
2023/09/19 09:09:42;;;;;;;0.38;0.38;;;16.60;99.90;;;;;;5099587;28;20219;-74
2023/09/19 09:12:13;;;;;;;1.10;1.05;;;16.60;99.90;;;;;;5102863;27;20458;-75
2023/09/19 09:14:50;;;;;;;0.60;0.60;;;16.60;99.90;;;;;;5105424;28;20047;-75
2023/09/19 09:17:20;;;;;;;0.50;0.50;;;16.70;99.90;;;;;;5101987;28;20047;-75
2023/09/19 09:19:48;;;;;;;1.30;1.20;;;16.70;99.90;;;;;;5101402;28;20052;-75
2023/09/19 09:22:16;;;;;;;10.75;0.57;;;16.70;99.90;;;;;;5104848;28;20127;-75
2023/09/19 09:24:53;;;;;;;0.30;0.30;;;16.80;99.90;;;;;;5103637;28;20071;-75
2023/09/19 09:27:20;;;;;;;0.30;0.30;;;16.80;99.90;;;;;;5102253;28;20058;-75
2023/09/19 09:29:50;;;;;;;0.68;0.68;;;16.80;99.90;;;;;;5099198;28;20047;-75
2023/09/19 09:32:28;;;;;;;0.50;0.50;;;16.80;99.90;;;;;;5095962;28;20130;-74
2023/09/19 09:34:56;;;;;;;0.20;0.20;;;16.80;99.90;;;;;;5104593;28;20218;-75
2023/09/19 09:37:25;;;;;;;1.95;1.38;;;16.90;99.90;;;;;;5103078;28;20710;-75
2023/09/19 09:39:52;;;;;;;0.55;0.30;;;16.90;99.90;;;;;;5096812;28;20048;-74
2023/09/19 09:42:41;;;;;;;1.92;1.80;;;17.00;99.90;;;;;;5100041;28;20043;-75
2023/09/19 09:45:36;;;;;;;0.52;0.52;;;17.00;99.90;;;;;;5099933;28;20051;-74
2023/09/19 09:48:03;;;;;;;0.38;0.38;;;17.00;99.90;;;;;;5104591;28;20051;-75
2023/09/19 09:50:56;;;;;;;0.50;0.50;;;17.10;99.90;;;;;;5099511;28;20113;-74
2023/09/19 09:53:27;;;;;;;0.40;0.40;;;17.20;99.90;;;;;;5104079;28;20058;-74
2023/09/19 09:56:06;;;;;;;0.20;0.20;;;17.30;99.90;;;;;;5103219;28;20112;-75
2023/09/19 09:58:40;;;;;;;0.98;0.98;;;17.40;99.90;;;;;;5101172;28;20051;-74
2023/09/19 10:01:09;;;;;;;0.30;0.30;;;17.40;99.90;;;;;;5100314;28;20043;-74
2023/09/19 10:03:48;;;;;;;0.35;0.35;;;17.50;99.90;;;;;;5105381;28;20036;-74
2023/09/19 10:09:10;;;;;;;0.40;0.40;;;17.90;99.90;;;;;;5093317;28;20063;-74
2023/09/19 10:11:51;;;;;;;3.67;0.40;;;18.10;99.90;;;;;;5097119;28;20039;-74
2023/09/19 10:14:19;;;;;;;1.45;1.40;;;18.20;99.90;;;;;;5097712;28;20071;-74
2023/09/19 10:16:47;;;;;;;0.50;0.50;;;18.30;99.90;;;;;;5093346;28;20447;-77
2023/09/19 10:19:36;;;;;;;0.20;0.20;;;18.40;99.90;;;;;;5093676;28;20048;-74
2023/09/19 10:22:04;;;;;;;0.25;0.25;;;18.40;99.90;;;;;;5085785;28;20088;-74
2023/09/19 10:24:33;;;;;;;0.30;0.30;;;18.50;99.90;;;;;;5095895;28;20047;-74
2023/09/19 10:27:00;;;;;;;2.10;1.95;;;18.60;99.90;;;;;;5103951;28;20044;-74
2023/09/19 10:29:31;;;;;;;0.77;0.77;;;18.70;99.90;;;;;;5096505;28;20067;-75
2023/09/19 10:31:58;;;;;;;0.45;0.45;;;18.60;99.90;;;;;;5102965;28;20043;-74
2023/09/19 10:34:26;;;;;;;0.30;0.30;;;18.70;99.90;;;;;;5097870;28;20044;-75
2023/09/19 10:36:53;;;;;;;0.20;0.20;;;18.60;99.90;;;;;;5098964;28;20516;-74
2023/09/19 10:39:19;;;;;;;0.30;0.30;;;18.60;99.90;;;;;;5096014;28;20048;-75
2023/09/19 10:41:53;;;;;;;;;;;18.50;99.90;;;;;;5097211;28;20043;-75
2023/09/19 10:44:25;;;;;;;1.77;1.17;;;18.50;99.90;;;;;;5096782;28;19924;-75
2023/09/19 10:46:54;;;;;;;0.30;0.30;;;18.50;99.90;;;;;;5096409;28;20039;-75
2023/09/19 10:49:24;;;;;;;0.38;0.38;;;18.50;99.90;;;;;;5092628;28;20094;-75
2023/09/19 10:51:55;;;;;;;1.13;1.10;;;18.60;99.90;;;;;;5093177;28;20048;-75
2023/09/19 10:54:26;;;;;;;0.75;0.75;;;18.80;99.90;;;;;;5093579;28;20043;-76
2023/09/19 10:56:53;;;;;;;0.70;0.38;;;18.80;99.90;;;;;;5091048;28;20673;-75
2023/09/19 10:59:21;;;;;;;0.30;0.30;;;18.80;99.90;;;;;;5094610;28;20047;-74
2023/09/19 11:01:52;;;;;;;0.40;0.40;;;18.70;99.90;;;;;;5073405;28;20098;-75
2023/09/19 11:04:29;;;;;;;0.30;0.30;;;18.50;99.90;;;;;;5096776;28;20104;-75
2023/09/19 11:07:11;;;;;;;0.82;0.82;;;18.40;99.90;;;;;;5091353;28;20117;-75
2023/09/19 11:09:54;;;;;;;1.05;0.85;;;18.60;99.90;;;;;;5089359;28;20090;-74
2023/09/19 11:14:58;;;;;;;0.40;0.40;;;18.70;99.90;;;;;;5095280;28;20059;-75
2023/09/19 11:17:31;;;;;;;0.55;0.55;;;18.50;99.90;;;;;;5092931;28;20070;-75
2023/09/19 11:23:17;;;;;;;0.35;0.35;;;18.50;99.90;;;;;;5098129;28;20346;-74
2023/09/19 11:25:51;;;;;;;0.93;0.93;;;18.70;99.90;;;;;;5092689;28;20058;-74
2023/09/19 11:28:21;;;;;;;2.50;0.95;;;18.80;99.90;;;;;;5096416;28;20043;-75
2023/09/19 11:30:49;;;;;;;0.30;0.30;;;18.70;99.90;;;;;;5094448;28;20059;-75
2023/09/19 11:36:02;;;;;;;0.93;0.93;;;18.60;99.90;;;;;;5092927;28;20143;-76
2023/09/19 11:39:07;;;;;;;0.30;0.30;;;18.50;99.90;;;;;;5103703;28;20453;-76
2023/09/19 11:41:37;;;;;;;1.58;0.65;;;18.60;99.90;;;;;;5068563;28;20051;-75
2023/09/19 11:44:04;;;;;;;0.32;0.22;;;18.80;99.90;;;;;;5098666;28;20056;-77
2023/09/19 11:46:31;;;;;;;0.22;0.22;;;19.00;99.90;;;;;;5100704;28;20120;-75
2023/09/19 11:49:15;;;;;;;0.40;0.40;;;19.10;99.90;;;;;;5098596;28;20607;-76
2023/09/19 11:51:45;;;;;;;0.30;0.28;;;19.10;99.90;;;;;;5098261;28;20510;-75
2023/09/19 11:54:18;;;;;;;0.47;0.47;;;19.00;99.90;;;;;;5097752;28;20683;-75
2023/09/19 11:56:48;;;;;;;0.75;0.75;;;19.10;99.90;;;;;;5094849;28;20057;-75
2023/09/19 11:59:22;;;;;;;0.30;0.30;;;19.10;99.90;;;;;;5102935;27;20130;-76
2023/09/19 12:01:58;;;;;;;0.65;0.65;;;19.00;99.90;;;;;;5098946;28;20048;-76
2023/09/19 12:04:43;;;;;;;0.40;0.40;;;19.00;99.90;;;;;;5101842;28;20057;-76
2023/09/19 12:07:14;;;;;;;0.20;0.20;;;18.90;99.90;;;;;;5100178;28;20047;-76
2023/09/19 12:09:47;;;;;;;0.30;0.30;;;18.70;99.90;;;;;;5098018;28;20048;-75
2023/09/19 12:12:19;;;;;;;0.73;0.73;;;18.50;99.90;;;;;;5100713;28;20047;-75
2023/09/19 12:14:51;;;;;;;0.73;0.73;;;18.30;99.90;;;;;;5096812;28;20394;-75
2023/09/19 12:17:27;;;;;;;0.30;0.30;;;18.20;99.90;;;;;;5096000;28;20744;-76
2023/09/19 12:19:56;;;;;;;0.55;0.55;;;18.20;99.90;;;;;;5110243;27;20158;-75
2023/09/19 12:22:22;;;;;;;1.85;0.60;;;18.30;99.90;;;;;;5102018;28;20046;-75
2023/09/19 12:24:48;;;;;;;;;;;18.30;99.90;;;;;;5098377;28;20036;-75
2023/09/19 12:27:15;;;;;;;0.85;0.85;;;18.20;99.90;;;;;;5098013;28;19924;-76
2023/09/19 12:29:49;;;;;;;1.20;1.20;;;18.20;99.90;;;;;;5101292;28;20074;-75
2023/09/19 12:32:21;;;;;;;1.10;0.68;;;18.10;99.90;;;;;;5101308;28;20101;-76
2023/09/19 12:34:54;;;;;;;0.30;0.30;;;18.10;99.90;;;;;;5096597;28;20079;-76
2023/09/19 12:37:27;;;;;;;0.25;0.25;;;18.00;99.90;;;;;;5101552;28;20090;-75
2023/09/19 12:40:14;;;;;;;0.20;0.20;;;17.80;99.90;;;;;;5103015;28;20115;-75
2023/09/19 12:42:41;;;;;;;0.35;0.35;;;17.60;99.90;;;;;;5100148;28;20043;-76
2023/09/19 12:45:09;;;;;;;0.57;0.57;;;17.40;99.90;;;;;;5100704;28;20063;-76
2023/09/19 12:47:35;;;;;;;0.30;0.30;;;17.40;99.90;;;;;;5097272;28;20051;-75
2023/09/19 12:50:13;;;;;;;;;;;17.60;99.90;;;;;;5096479;28;20036;-76
2023/09/19 12:52:40;;;;;;;0.30;0.30;;;17.80;99.90;;;;;;5097763;28;20626;-76
2023/09/19 12:55:10;;;;;;;0.43;0.43;;;18.00;99.90;;;;;;5099547;28;20525;-76
2023/09/19 12:57:36;;;;;;;0.30;0.30;;;18.10;99.90;;;;;;5097877;28;20055;-75
2023/09/19 13:00:05;;;;;;;;;;;18.20;99.90;;;;;;5094547;28;20552;-74
2023/09/19 13:02:32;;;;;;;0.20;0.20;;;18.20;99.90;;;;;;5096406;28;20298;-76
2023/09/19 13:05:00;;;;;;;0.20;0.20;;;18.30;99.90;;;;;;5095954;28;20466;-76
2023/09/19 13:07:49;;;;;;;0.25;0.25;;;18.30;99.90;;;;;;5099816;28;20044;-75
2023/09/19 13:10:16;;;;;;;0.20;0.20;;;18.20;99.90;;;;;;5100475;28;20535;-75
2023/09/19 13:12:47;;;;;;;0.30;0.30;;;18.10;99.90;;;;;;5100777;28;20407;-75
2023/09/19 13:15:19;;;;;;;0.50;0.50;;;18.00;99.90;;;;;;5093111;28;20127;-75